Time;durP1;ratioP1;P1;durP2;ratioP2;P2;SDS_P1;SDS_P2;PMS_P1;PMS_P2;Temp;Humidity;BMP_temperature;BMP_pressure;BME280_temperature;BME280_humidity;BME280_pressure;Samples;Min_cycle;Max_cycle;Signal;HPM_P1;HPM_P2
2022/10/15 00:01:21;;;;;;;40.15;20.63;;;;;;;12.73;100.00;100665.00;5094174;28;20035;-66
2022/10/15 00:03:47;;;;;;;36.67;19.73;;;;;;;12.72;100.00;100663.25;5094499;28;20054;-66
2022/10/15 00:06:15;;;;;;;37.42;19.42;;;;;;;12.72;100.00;100665.88;5092423;28;20019;-66
2022/10/15 00:08:41;;;;;;;38.03;22.13;;;;;;;12.72;100.00;100668.53;5078228;28;20028;-66
2022/10/15 00:11:16;;;;;;;45.28;21.63;;;;;;;12.73;100.00;100664.13;5088044;28;20049;-65
2022/10/15 00:13:42;;;;;;;33.63;20.30;;;;;;;12.74;100.00;100666.78;5086971;28;20030;-65
2022/10/15 00:16:11;;;;;;;38.22;20.80;;;;;;;12.74;100.00;100656.22;5076365;28;20086;-66
2022/10/15 00:18:36;;;;;;;37.75;18.98;;;;;;;12.75;100.00;100660.63;5088993;28;20028;-66
2022/10/15 00:21:05;;;;;;;39.05;20.77;;;;;;;12.78;100.00;100660.63;5094877;28;20027;-65
2022/10/15 00:23:30;;;;;;;39.53;20.77;;;;;;;12.81;100.00;100658.00;5092249;28;20023;-66
2022/10/15 00:26:10;;;;;;;35.10;21.05;;;;;;;12.80;100.00;100658.00;5085461;28;20027;-65
2022/10/15 00:28:36;;;;;;;48.38;21.17;;;;;;;12.79;100.00;100659.78;5075737;28;20069;-64
2022/10/15 00:31:14;;;;;;;42.13;22.42;;;;;;;12.81;100.00;100663.28;5074388;28;20026;-66
2022/10/15 00:33:40;;;;;;;37.17;21.60;;;;;;;12.82;100.00;100654.50;5076641;28;20062;-66
2022/10/15 00:36:14;;;;;;;38.50;21.08;;;;;;;12.82;100.00;100651.84;5075452;28;20028;-66
2022/10/15 00:38:39;;;;;;;41.65;21.05;;;;;;;12.83;100.00;100650.09;5075326;28;20028;-66
2022/10/15 00:41:06;;;;;;;41.92;22.30;;;;;;;12.84;100.00;100643.06;5076266;28;20042;-66
2022/10/15 00:43:41;;;;;;;36.33;20.65;;;;;;;12.85;100.00;100648.34;5073046;28;20020;-66
2022/10/15 00:46:32;;;;;;;33.47;20.05;;;;;;;12.85;100.00;100647.47;5089879;28;20024;-66
2022/10/15 00:49:01;;;;;;;42.78;21.48;;;;;;;12.86;100.00;100652.75;5090819;28;20024;-66
2022/10/15 00:51:32;;;;;;;39.38;21.80;;;;;;;12.84;100.00;100646.56;5088743;28;20031;-66
2022/10/15 00:53:58;;;;;;;42.50;20.48;;;;;;;12.85;100.00;100642.19;5077879;28;20048;-66
2022/10/15 00:56:26;;;;;;;35.00;20.58;;;;;;;12.84;100.00;100646.56;5093353;28;20403;-66
2022/10/15 00:58:53;;;;;;;42.63;22.08;;;;;;;12.81;100.00;100650.09;5094261;28;20027;-66
2022/10/15 01:01:18;;;;;;;36.85;22.08;;;;;;;12.81;100.00;100639.53;5091188;28;20028;-66
2022/10/15 01:03:44;;;;;;;43.42;21.83;;;;;;;12.80;100.00;100640.41;5094108;28;20027;-67
2022/10/15 01:06:10;;;;;;;38.72;22.42;;;;;;;12.81;100.00;100641.28;5089137;28;20111;-65
2022/10/15 01:08:35;;;;;;;39.13;22.08;;;;;;;12.81;100.00;100647.44;5082688;28;20073;-66
2022/10/15 01:11:39;;;;;;;43.28;23.05;;;;;;;12.81;100.00;100631.59;5091363;28;20020;-66
2022/10/15 01:14:44;;;;;;;40.13;22.15;;;;;;;12.82;100.00;100638.66;5084611;28;20039;-66
2022/10/15 01:17:15;;;;;;;37.50;23.60;;;;;;;12.83;100.00;100639.53;5092289;28;20031;-66
2022/10/15 01:20:13;;;;;;;43.53;23.45;;;;;;;12.81;100.00;100631.59;5090422;28;20118;-66
2022/10/15 01:22:39;;;;;;;48.25;23.60;;;;;;;12.78;100.00;100626.31;5078243;28;20093;-66
2022/10/15 01:25:16;;;;;;;45.50;22.73;;;;;;;12.77;100.00;100623.66;5080108;28;20024;-67
2022/10/15 01:27:51;;;;;;;39.15;22.95;;;;;;;12.77;100.00;100613.13;5091233;28;20506;-65
2022/10/15 01:30:24;;;;;;;43.83;23.38;;;;;;;12.75;100.00;100620.13;5091012;28;20030;-66
2022/10/15 01:32:59;;;;;;;40.30;22.15;;;;;;;12.73;100.00;100612.22;5091469;28;20059;-66
2022/10/15 01:35:52;;;;;;;45.28;23.77;;;;;;;12.73;100.00;100614.84;5080264;28;20032;-66
2022/10/15 01:38:44;;;;;;;42.03;23.77;;;;;;;12.71;100.00;100605.16;5087865;28;20077;-66
2022/10/15 01:41:17;;;;;;;39.75;23.02;;;;;;;12.70;100.00;100601.66;5076179;28;20119;-66
2022/10/15 01:43:55;;;;;;;49.67;23.48;;;;;;;12.70;100.00;100600.78;5089802;28;20107;-66
2022/10/15 01:46:28;;;;;;;41.95;23.48;;;;;;;12.71;100.00;100605.16;5086815;28;20024;-65
2022/10/15 01:48:57;;;;;;;52.50;25.20;;;;;;;12.69;100.00;100599.88;5091510;28;20416;-66
2022/10/15 01:51:24;;;;;;;46.95;24.92;;;;;;;12.69;100.00;100599.00;5078335;28;20027;-66
2022/10/15 01:53:51;;;;;;;46.53;24.77;;;;;;;12.66;100.00;100597.22;5087584;28;20027;-66
2022/10/15 01:56:22;;;;;;;48.78;24.98;;;;;;;12.64;100.00;100604.25;5092443;28;20040;-65
2022/10/15 01:58:51;;;;;;;48.42;25.10;;;;;;;12.62;100.00;100598.09;5092490;28;20028;-65
2022/10/15 02:01:16;;;;;;;51.40;26.67;;;;;;;12.60;100.00;100589.28;5090392;28;20026;-65
2022/10/15 02:03:44;;;;;;;53.47;27.73;;;;;;;12.58;100.00;100585.75;5091415;28;20476;-65
2022/10/15 02:06:15;;;;;;;52.83;27.33;;;;;;;12.55;100.00;100591.91;5090298;28;20056;-66
2022/10/15 02:08:51;;;;;;;51.78;27.08;;;;;;;12.52;100.00;100585.72;5092759;28;20032;-66
2022/10/15 02:11:18;;;;;;;49.63;25.75;;;;;;;12.50;100.00;100588.34;5078191;28;20020;-65
2022/10/15 02:13:57;;;;;;;50.15;26.20;;;;;;;12.48;100.00;100582.22;5093062;28;20027;-66
2022/10/15 02:16:29;;;;;;;45.75;25.60;;;;;;;12.43;100.00;100579.53;5078326;28;20032;-65
2022/10/15 02:18:54;;;;;;;54.20;29.15;;;;;;;12.41;100.00;100569.84;5090810;28;20055;-67
2022/10/15 02:21:25;;;;;;;55.20;28.02;;;;;;;12.39;100.00;100572.47;5090418;28;20464;-66
2022/10/15 02:23:58;;;;;;;53.78;28.10;;;;;;;12.35;100.00;100565.41;5089437;28;20067;-65
2022/10/15 02:26:26;;;;;;;49.65;27.20;;;;;;;12.33;100.00;100564.53;5077382;28;20024;-66
2022/10/15 02:28:57;;;;;;;56.53;29.38;;;;;;;12.30;100.00;100564.50;5090735;28;20074;-65
2022/10/15 02:31:24;;;;;;;59.47;29.08;;;;;;;12.28;100.00;100550.44;5091656;28;20031;-67
2022/10/15 02:33:54;;;;;;;62.58;29.40;;;;;;;12.25;100.00;100550.41;5090777;28;20478;-66
2022/10/15 02:36:19;;;;;;;63.38;31.95;;;;;;;12.23;100.00;100547.75;5081905;28;20082;-65
2022/10/15 02:38:46;;;;;;;55.92;29.58;;;;;;;12.20;100.00;100546.88;5090025;28;20094;-65
2022/10/15 02:41:13;;;;;;;58.60;30.67;;;;;;;12.20;100.00;100547.75;5087652;28;20020;-66
2022/10/15 02:43:39;;;;;;;61.30;30.10;;;;;;;12.19;100.00;100543.34;5090486;28;20115;-67
2022/10/15 02:46:08;;;;;;;69.15;32.28;;;;;;;12.19;100.00;100542.47;5087334;28;20028;-66
2022/10/15 02:48:34;;;;;;;56.90;29.92;;;;;;;12.17;100.00;100538.94;5080863;28;20028;-66
2022/10/15 02:50:59;;;;;;;63.70;31.35;;;;;;;12.15;100.00;100544.22;5089083;28;20039;-65
2022/10/15 02:53:24;;;;;;;70.85;32.83;;;;;;;12.12;100.00;100539.78;5094068;28;20403;-65
2022/10/15 02:55:50;;;;;;;62.40;32.08;;;;;;;12.10;100.00;100538.91;5087266;28;20048;-66
2022/10/15 02:58:15;;;;;;;66.70;32.45;;;;;;;12.10;100.00;100540.66;5095706;28;20061;-67
2022/10/15 03:00:40;;;;;;;59.83;31.67;;;;;;;12.10;100.00;100546.84;5091044;28;20066;-66
2022/10/15 03:03:06;;;;;;;57.08;30.85;;;;;;;12.10;100.00;100533.66;5095603;28;20032;-67
2022/10/15 03:05:33;;;;;;;60.60;32.47;;;;;;;12.10;100.00;100525.72;5083212;28;20446;-66
2022/10/15 03:07:59;;;;;;;57.90;31.58;;;;;;;12.09;100.00;100523.97;5079969;28;20476;-65
2022/10/15 03:10:25;;;;;;;63.28;31.65;;;;;;;12.10;100.00;100525.72;5093493;28;20035;-65
2022/10/15 03:12:50;;;;;;;70.07;31.80;;;;;;;12.09;100.00;100521.31;5090898;28;20032;-66
2022/10/15 03:15:15;;;;;;;60.58;31.08;;;;;;;12.09;100.00;100518.69;5085707;28;20036;-66
2022/10/15 03:17:41;;;;;;;61.22;29.77;;;;;;;12.07;100.00;100520.44;5087327;28;20100;-66
2022/10/15 03:20:06;;;;;;;65.22;31.83;;;;;;;12.09;100.00;100521.31;5092854;28;20028;-66
2022/10/15 03:22:32;;;;;;;66.35;31.70;;;;;;;12.05;100.00;100527.47;5095769;28;20020;-66
2022/10/15 03:24:57;;;;;;;66.40;31.50;;;;;;;12.04;100.00;100525.69;5094552;28;20114;-66
2022/10/15 03:27:22;;;;;;;65.43;31.33;;;;;;;12.00;100.00;100523.91;5083762;28;20024;-65
2022/10/15 03:29:48;;;;;;;69.78;32.72;;;;;;;11.97;100.00;100522.13;5093862;28;20107;-66
2022/10/15 03:32:13;;;;;;;66.82;32.72;;;;;;;11.96;100.00;100520.41;5095326;28;20523;-65
2022/10/15 03:34:38;;;;;;;68.72;32.63;;;;;;;11.96;100.00;100516.84;5093306;28;20024;-66
2022/10/15 03:37:04;;;;;;;62.65;31.02;;;;;;;11.94;100.00;100511.56;5085971;28;20029;-66
2022/10/15 03:39:29;;;;;;;67.35;32.25;;;;;;;11.93;100.00;100517.69;5095511;28;20065;-66
2022/10/15 03:41:54;;;;;;;66.50;31.45;;;;;;;11.92;100.00;100515.03;5094680;28;20063;-65
2022/10/15 03:44:20;;;;;;;65.45;31.23;;;;;;;11.91;100.00;100518.53;5085636;28;20020;-66
2022/10/15 03:46:45;;;;;;;70.93;32.72;;;;;;;11.87;100.00;100514.13;5090506;28;20028;-65
2022/10/15 03:49:11;;;;;;;62.20;31.08;;;;;;;11.84;100.00;100517.63;5082167;28;20020;-65
2022/10/15 03:51:36;;;;;;;69.40;32.35;;;;;;;11.81;100.00;100514.97;5087158;28;20369;-67
2022/10/15 03:54:02;;;;;;;65.30;32.95;;;;;;;11.78;100.00;100522.88;5094562;28;20490;-66
2022/10/15 03:56:28;;;;;;;69.75;34.40;;;;;;;11.76;100.00;100533.41;5082854;28;20052;-65
2022/10/15 03:58:53;;;;;;;68.70;34.25;;;;;;;11.72;100.00;100533.38;5075013;28;20020;-65
2022/10/15 04:01:18;;;;;;;68.18;35.38;;;;;;;11.71;100.00;100527.22;5080411;28;20035;-66
2022/10/15 04:03:44;;;;;;;70.32;36.00;;;;;;;11.72;100.00;100534.28;5094357;28;20020;-66
2022/10/15 04:06:10;;;;;;;71.18;34.90;;;;;;;11.75;100.00;100536.91;5085446;28;20476;-67
2022/10/15 04:08:35;;;;;;;71.15;36.00;;;;;;;11.77;100.00;100532.56;5094553;28;20024;-67
2022/10/15 04:11:01;;;;;;;75.07;37.63;;;;;;;11.82;100.00;100536.06;5092834;28;20059;-66
2022/10/15 04:13:27;;;;;;;70.97;35.47;;;;;;;11.85;100.00;100526.44;5087645;28;20024;-67
2022/10/15 04:15:53;;;;;;;73.45;35.88;;;;;;;11.91;100.00;100537.00;5077575;28;20020;-66
2022/10/15 04:18:21;;;;;;;80.22;36.70;;;;;;;11.93;100.00;100540.53;5093414;28;20396;-66
2022/10/15 04:20:47;;;;;;;74.55;37.45;;;;;;;11.97;100.00;100543.22;5085534;28;20028;-65
2022/10/15 04:23:14;;;;;;;80.50;36.45;;;;;;;12.00;100.00;100531.81;5079640;28;20032;-67
2022/10/15 04:25:39;;;;;;;76.80;38.70;;;;;;;12.02;100.00;100535.38;5077231;28;20039;-67
2022/10/15 04:28:05;;;;;;;78.72;37.75;;;;;;;12.06;100.00;100526.59;5092572;28;20024;-66
2022/10/15 04:30:30;;;;;;;77.25;36.13;;;;;;;12.10;100.00;100525.72;5091253;28;20021;-66
2022/10/15 04:32:55;;;;;;;73.07;36.47;;;;;;;12.11;100.00;100523.97;5094154;28;20368;-66
2022/10/15 04:35:21;;;;;;;71.63;37.08;;;;;;;12.12;100.00;100523.97;5091777;28;20032;-66
2022/10/15 04:37:46;;;;;;;72.35;36.15;;;;;;;12.16;100.00;100513.47;5089611;28;20024;-66
2022/10/15 04:40:12;;;;;;;79.25;37.45;;;;;;;12.17;100.00;100510.81;5082281;28;20374;-65
2022/10/15 04:42:38;;;;;;;71.57;35.88;;;;;;;12.21;100.00;100511.69;5093405;28;20032;-66
2022/10/15 04:45:05;;;;;;;72.13;35.72;;;;;;;12.24;100.00;100517.00;5075298;28;20037;-67
2022/10/15 04:47:30;;;;;;;76.40;36.38;;;;;;;12.24;100.00;100519.66;5089638;28;20028;-66
2022/10/15 04:49:55;;;;;;;77.13;35.67;;;;;;;12.24;100.00;100522.28;5081703;28;20115;-66
2022/10/15 04:52:21;;;;;;;70.85;36.72;;;;;;;12.24;100.00;100522.28;5087790;28;20078;-67
2022/10/15 04:54:46;;;;;;;69.93;35.85;;;;;;;12.28;100.00;100516.16;5089287;28;20032;-66
2022/10/15 04:57:12;;;;;;;70.05;36.67;;;;;;;12.27;100.00;100517.00;5093076;28;20040;-66
2022/10/15 04:59:37;;;;;;;75.90;37.47;;;;;;;12.30;100.00;100511.75;5075536;28;20032;-66
2022/10/15 05:02:02;;;;;;;70.05;35.70;;;;;;;12.32;100.00;100510.00;5085779;28;20142;-66
2022/10/15 05:04:28;;;;;;;75.88;36.58;;;;;;;12.33;100.00;100511.78;5086936;28;20024;-66
2022/10/15 05:06:53;;;;;;;69.70;36.67;;;;;;;12.32;100.00;100505.59;5092867;28;20096;-67
2022/10/15 05:09:18;;;;;;;76.55;38.20;;;;;;;12.31;100.00;100505.59;5093958;28;20050;-66
2022/10/15 05:11:44;;;;;;;69.60;35.90;;;;;;;12.29;100.00;100510.00;5090996;28;20031;-66
2022/10/15 05:14:09;;;;;;;69.75;35.75;;;;;;;12.27;100.00;100506.47;5084933;28;20059;-66
2022/10/15 05:16:35;;;;;;;66.78;34.38;;;;;;;12.28;100.00;100505.59;5080786;28;20742;-67
2022/10/15 05:19:03;;;;;;;68.55;35.30;;;;;;;12.27;100.00;100502.06;5093219;28;20035;-66
2022/10/15 05:21:30;;;;;;;66.63;34.08;;;;;;;12.24;100.00;100506.47;5079221;28;20108;-66
2022/10/15 05:23:55;;;;;;;67.35;34.40;;;;;;;12.21;100.00;100503.78;5090833;28;20103;-66
2022/10/15 05:26:22;;;;;;;72.70;35.83;;;;;;;12.17;100.00;100496.72;5077291;28;20128;-65
2022/10/15 05:28:49;;;;;;;62.25;34.88;;;;;;;12.13;100.00;100494.09;5073546;28;20052;-66
2022/10/15 05:31:17;;;;;;;68.10;34.53;;;;;;;12.11;100.00;100494.94;5080162;28;20459;-66
2022/10/15 05:33:42;;;;;;;67.32;34.25;;;;;;;12.07;100.00;100491.44;5089080;28;20056;-69
2022/10/15 05:36:19;;;;;;;71.85;35.90;;;;;;;12.03;100.00;100486.13;5078714;28;20074;-66
2022/10/15 05:38:46;;;;;;;71.57;36.42;;;;;;;11.99;100.00;100493.13;5084673;28;20475;-65
2022/10/15 05:41:11;;;;;;;79.13;37.13;;;;;;;11.99;100.00;100493.13;5085602;28;20062;-66
2022/10/15 05:43:37;;;;;;;77.70;38.47;;;;;;;11.96;100.00;100496.66;5091271;28;20040;-66
2022/10/15 05:46:02;;;;;;;76.47;36.60;;;;;;;11.98;100.00;100488.75;5091114;28;20024;-66
2022/10/15 05:48:27;;;;;;;72.78;35.58;;;;;;;11.97;100.00;100482.56;5092851;28;20047;-65
2022/10/15 05:50:52;;;;;;;82.32;38.20;;;;;;;11.97;100.00;100486.97;5083306;28;20032;-66
2022/10/15 05:53:18;;;;;;;73.68;36.15;;;;;;;11.94;100.00;100495.75;5092888;28;20028;-66
2022/10/15 05:55:44;;;;;;;82.40;37.00;;;;;;;11.94;100.00;100497.50;5091598;28;20175;-66
2022/10/15 05:58:10;;;;;;;78.60;36.22;;;;;;;11.97;100.00;100502.81;5093304;28;20032;-67
2022/10/15 06:00:35;;;;;;;83.47;37.65;;;;;;;11.96;100.00;100498.41;5090909;28;20484;-65
2022/10/15 06:03:00;;;;;;;81.07;36.20;;;;;;;11.98;100.00;100504.56;5090827;28;20120;-66
2022/10/15 06:05:26;;;;;;;80.40;34.72;;;;;;;12.03;100.00;100501.94;5090490;28;20027;-65
2022/10/15 06:07:51;;;;;;;73.88;34.33;;;;;;;12.08;100.00;100494.94;5083976;28;20033;-66
2022/10/15 06:10:17;;;;;;;84.78;36.20;;;;;;;12.13;100.00;100496.72;5072712;28;20047;-68
2022/10/15 06:12:48;;;;;;;74.38;32.55;;;;;;;12.17;100.00;100499.38;5089860;28;20383;-66
2022/10/15 06:15:13;;;;;;;70.30;32.95;;;;;;;12.16;100.00;100497.63;5080325;28;20038;-67
2022/10/15 06:17:38;;;;;;;74.20;33.80;;;;;;;12.19;100.00;100495.00;5083841;28;20098;-67
2022/10/15 06:20:04;;;;;;;73.72;32.67;;;;;;;12.21;100.00;100485.31;5089459;28;20361;-66
2022/10/15 06:22:30;;;;;;;74.72;32.72;;;;;;;12.21;100.00;100490.59;5084618;28;20085;-66
2022/10/15 06:24:55;;;;;;;67.25;30.73;;;;;;;12.25;100.00;100487.09;5093571;28;20032;-66
2022/10/15 06:27:20;;;;;;;64.15;32.30;;;;;;;12.25;100.00;100482.72;5093673;28;20073;-66
2022/10/15 06:29:46;;;;;;;63.25;30.10;;;;;;;12.29;100.00;100488.91;5094009;28;20100;-66
2022/10/15 06:32:11;;;;;;;60.17;29.77;;;;;;;12.31;100.00;100488.00;5082456;28;20427;-65
2022/10/15 06:34:37;;;;;;;67.22;31.20;;;;;;;12.32;100.00;100488.91;5078193;28;20032;-65
2022/10/15 06:37:02;;;;;;;60.78;29.27;;;;;;;12.33;100.00;100480.13;5094612;28;20035;-66
2022/10/15 06:39:28;;;;;;;59.20;27.45;;;;;;;12.32;100.00;100484.50;5094592;28;20031;-66
2022/10/15 06:41:53;;;;;;;60.05;28.38;;;;;;;12.29;100.00;100483.63;5096045;28;20032;-65
2022/10/15 06:44:18;;;;;;;59.20;27.35;;;;;;;12.32;100.00;100491.53;5092024;28;20016;-68
2022/10/15 06:46:44;;;;;;;60.85;28.25;;;;;;;12.33;100.00;100501.22;5092960;28;20060;-65
2022/10/15 06:49:09;;;;;;;59.13;27.33;;;;;;;12.34;100.00;100497.69;5091425;28;20536;-67
2022/10/15 06:51:36;;;;;;;51.92;26.23;;;;;;;12.38;100.00;100494.19;5094605;28;20042;-65
2022/10/15 06:54:02;;;;;;;59.95;27.02;;;;;;;12.44;100.00;100494.22;5088015;28;20028;-66
2022/10/15 06:56:27;;;;;;;56.95;27.10;;;;;;;12.48;100.00;100493.34;5093024;28;20062;-67
2022/10/15 06:58:53;;;;;;;53.50;24.52;;;;;;;12.51;100.00;100494.22;5082876;28;20439;-66
2022/10/15 07:01:18;;;;;;;61.42;27.20;;;;;;;12.54;100.00;100491.59;5087885;28;20101;-65
2022/10/15 07:03:44;;;;;;;59.90;26.38;;;;;;;12.57;100.00;100495.13;5084940;28;20024;-65
2022/10/15 07:06:09;;;;;;;61.15;25.45;;;;;;;12.60;100.00;100491.59;5088370;28;20449;-64
2022/10/15 07:08:35;;;;;;;64.13;27.40;;;;;;;12.60;100.00;100499.53;5084631;28;20445;-65
2022/10/15 07:11:05;;;;;;;67.68;26.38;;;;;;;12.66;100.00;100491.63;5088112;28;20477;-68
2022/10/15 07:13:34;;;;;;;67.97;28.25;;;;;;;12.68;100.00;100492.50;5081440;28;20377;-67
2022/10/15 07:16:11;;;;;;;71.40;28.85;;;;;;;12.72;100.00;100494.28;5068369;28;20030;-68
2022/10/15 07:18:37;;;;;;;76.20;29.27;;;;;;;12.78;100.00;100493.44;5079680;28;20107;-68
2022/10/15 07:21:04;;;;;;;76.47;29.83;;;;;;;12.78;100.00;100489.00;5091672;28;20024;-68
2022/10/15 07:23:30;;;;;;;76.95;31.65;;;;;;;12.81;100.00;100489.00;5083408;28;20035;-68
2022/10/15 07:25:59;;;;;;;75.38;30.98;;;;;;;12.84;100.00;100482.00;5082506;28;20043;-67
2022/10/15 07:28:25;;;;;;;81.68;32.22;;;;;;;12.86;100.00;100480.22;5089031;28;20027;-67
2022/10/15 07:30:50;;;;;;;75.53;31.33;;;;;;;12.88;100.00;100481.13;5085347;28;20019;-68
2022/10/15 07:33:16;;;;;;;77.40;32.30;;;;;;;12.90;100.00;100472.31;5091875;28;20081;-68
2022/10/15 07:35:41;;;;;;;71.32;29.42;;;;;;;12.88;100.00;100475.84;5086081;28;20487;-68
2022/10/15 07:38:06;;;;;;;66.93;28.33;;;;;;;12.91;100.00;100473.19;5085057;28;20021;-68
2022/10/15 07:40:32;;;;;;;62.88;27.48;;;;;;;12.94;100.00;100474.09;5087173;28;20031;-68
2022/10/15 07:42:58;;;;;;;58.83;26.13;;;;;;;12.94;100.00;100478.47;5089020;28;20018;-66
2022/10/15 07:45:25;;;;;;;59.65;26.20;;;;;;;12.96;100.00;100482.00;5092912;28;20035;-68
2022/10/15 07:47:51;;;;;;;62.22;26.75;;;;;;;12.97;100.00;100489.06;5084854;28;20020;-68
2022/10/15 07:50:17;;;;;;;63.17;27.30;;;;;;;12.98;100.00;100482.88;5088149;28;20019;-67
2022/10/15 07:52:43;;;;;;;66.75;28.95;;;;;;;12.97;100.00;100483.78;5088665;28;20031;-67
2022/10/15 07:55:08;;;;;;;71.28;29.45;;;;;;;12.95;100.00;100480.22;5088679;28;20028;-68
2022/10/15 07:57:34;;;;;;;69.20;27.98;;;;;;;12.95;100.00;100470.56;5080540;28;20040;-68
2022/10/15 07:59:59;;;;;;;64.65;29.80;;;;;;;12.96;100.00;100459.09;5089174;28;20536;-68
2022/10/15 08:02:24;;;;;;;76.18;31.20;;;;;;;12.98;100.00;100461.75;5082715;28;20028;-67
2022/10/15 08:04:50;;;;;;;75.45;31.95;;;;;;;13.02;100.00;100460.84;5076398;28;20028;-67
2022/10/15 08:07:16;;;;;;;80.03;31.25;;;;;;;13.01;100.00;100459.13;5086044;28;20064;-66
2022/10/15 08:09:41;;;;;;;80.88;31.73;;;;;;;13.06;100.00;100461.75;5087953;28;20376;-66
2022/10/15 08:12:06;;;;;;;79.43;29.83;;;;;;;13.07;100.00;100464.38;5087859;28;20376;-67
2022/10/15 08:14:33;;;;;;;81.80;30.65;;;;;;;13.14;100.00;100452.97;5084330;28;20028;-66
2022/10/15 08:17:01;;;;;;;79.80;31.73;;;;;;;13.15;100.00;100454.69;5086793;28;20377;-66
2022/10/15 08:19:26;;;;;;;76.55;30.10;;;;;;;13.29;100.00;100454.72;5089396;28;20024;-67
2022/10/15 08:21:51;;;;;;;72.00;30.45;;;;;;;13.43;100.00;100457.38;5094796;28;20043;-65
2022/10/15 08:24:17;;;;;;;74.75;28.95;;;;;;;13.61;100.00;100450.28;5084677;28;20103;-65
2022/10/15 08:26:42;;;;;;;73.63;31.27;;;;;;;13.62;100.00;100452.06;5089998;28;20033;-69
2022/10/15 08:29:09;;;;;;;72.07;29.33;;;;;;;13.68;100.00;100445.88;5076711;28;20070;-67
2022/10/15 08:31:34;;;;;;;60.60;28.67;;;;;;;13.71;100.00;100441.44;5079217;28;20028;-67
2022/10/15 08:34:01;;;;;;;65.40;27.48;;;;;;;13.80;100.00;100432.59;5081211;28;20020;-66
2022/10/15 08:36:26;;;;;;;70.72;28.10;;;;;;;13.86;100.00;100429.91;5085847;28;20539;-66
2022/10/15 08:38:52;;;;;;;60.53;28.20;;;;;;;13.92;100.00;100434.34;5084717;28;20112;-66
2022/10/15 08:41:31;;;;;;;57.53;27.30;;;;;;;13.95;100.00;100429.03;5075647;28;20021;-66
2022/10/15 08:43:57;;;;;;;52.40;26.25;;;;;;;13.94;100.00;100432.53;5077727;28;20039;-67
2022/10/15 08:46:45;;;;;;;49.75;25.92;;;;;;;14.00;100.00;100422.81;5091790;28;20024;-66
2022/10/15 08:49:23;;;;;;;47.70;25.13;;;;;;;14.06;100.00;100428.97;5082287;28;20104;-68
2022/10/15 08:51:55;;;;;;;42.25;23.05;;;;;;;14.13;100.00;100434.25;5085854;28;20025;-67
2022/10/15 08:54:21;;;;;;;42.25;22.73;;;;;;;14.18;100.00;100441.28;5085964;28;20016;-64
2022/10/15 08:56:52;;;;;;;40.75;23.85;;;;;;;14.16;100.00;100439.50;5067832;28;20075;-67
2022/10/15 08:59:40;;;;;;;40.45;23.20;;;;;;;14.28;100.00;100427.09;5080597;28;20108;-67
2022/10/15 09:02:19;;;;;;;37.45;22.73;;;;;;;14.34;100.00;100427.06;5082769;28;20387;-67
2022/10/15 09:04:57;;;;;;;36.42;21.95;;;;;;;14.41;100.00;100423.50;5082332;28;20028;-67
2022/10/15 09:07:35;;;;;;;35.53;21.83;;;;;;;14.50;100.00;100430.47;5085309;28;20024;-66
2022/10/15 09:10:10;;;;;;;35.95;22.23;;;;;;;14.45;100.00;100430.53;5086969;28;20077;-67
2022/10/15 09:12:55;;;;;;;31.88;21.40;;;;;;;14.38;100.00;100418.22;5083767;28;20051;-67
2022/10/15 09:15:23;;;;;;;29.02;20.33;;;;;;;14.32;100.00;100407.66;5075685;28;20357;-67
2022/10/15 09:17:51;;;;;;;35.08;20.00;;;;;;;14.21;100.00;100418.31;5087097;28;20028;-68
2022/10/15 09:20:30;;;;;;;33.28;20.08;;;;;;;14.07;100.00;100418.38;5084936;28;20031;-66
2022/10/15 09:22:56;;;;;;;36.03;20.55;;;;;;;14.03;100.00;100424.56;5089581;28;20038;-67
2022/10/15 09:25:23;;;;;;;34.58;20.80;;;;;;;14.05;100.00;100427.22;5093388;28;20020;-66
2022/10/15 09:27:51;;;;;;;30.30;19.20;;;;;;;14.02;100.00;100424.59;5080297;28;20047;-66
2022/10/15 09:30:38;;;;;;;35.38;19.63;;;;;;;13.99;100.00;100415.75;5079329;28;20016;-67
2022/10/15 09:33:28;;;;;;;30.88;18.48;;;;;;;13.91;100.00;100408.75;5091558;28;20035;-67
2022/10/15 09:36:19;;;;;;;31.70;18.42;;;;;;;13.89;100.00;100413.16;5076708;28;20036;-66
2022/10/15 09:39:11;;;;;;;35.75;19.17;;;;;;;13.87;100.00;100414.94;5063920;28;20040;-67
2022/10/15 09:41:50;;;;;;;36.15;19.38;;;;;;;13.87;100.00;100407.00;5077227;28;20032;-65
2022/10/15 09:44:17;;;;;;;34.03;18.65;;;;;;;13.88;100.00;100408.78;5079860;28;20110;-65
2022/10/15 09:46:47;;;;;;;35.97;19.27;;;;;;;13.91;100.00;100406.13;5083143;28;20043;-65
2022/10/15 09:49:26;;;;;;;30.20;17.92;;;;;;;13.92;100.00;100403.47;5082371;28;20074;-64
2022/10/15 09:52:04;;;;;;;30.20;17.30;;;;;;;13.85;100.00;100403.47;5075431;28;20520;-66
2022/10/15 09:55:11;;;;;;;31.48;17.67;;;;;;;13.85;100.00;100395.53;5091309;28;20035;-66
2022/10/15 09:57:38;;;;;;;34.63;18.60;;;;;;;13.89;100.00;100389.34;5068466;28;20040;-65
2022/10/15 10:00:07;;;;;;;33.50;17.40;;;;;;;13.90;100.00;100391.13;5078667;28;20074;-64
2022/10/15 10:02:33;;;;;;;32.78;17.35;;;;;;;13.92;100.00;100386.72;5079429;28;20077;-65
2022/10/15 10:05:19;;;;;;;29.05;16.50;;;;;;;13.92;100.00;100395.53;5080564;28;20021;-64
2022/10/15 10:07:44;;;;;;;31.98;17.05;;;;;;;13.90;100.00;100388.47;5083931;28;20055;-65
2022/10/15 10:10:24;;;;;;;31.58;16.35;;;;;;;13.90;100.00;100396.41;5081155;28;20086;-65
2022/10/15 10:12:50;;;;;;;30.10;16.58;;;;;;;13.90;100.00;100399.94;5077413;28;20032;-65
2022/10/15 10:15:34;;;;;;;28.05;15.88;;;;;;;13.94;100.00;100399.03;5073731;28;20502;-65
2022/10/15 10:18:01;;;;;;;28.60;14.05;;;;;;;13.92;100.00;100402.59;5073389;28;20472;-65
2022/10/15 10:20:29;;;;;;;23.90;12.25;;;;;;;13.91;100.00;100398.19;5079980;28;20380;-65
2022/10/15 10:22:56;;;;;;;22.00;12.02;;;;;;;13.90;100.00;100397.28;5073484;28;20028;-65
2022/10/15 10:25:31;;;;;;;21.17;12.30;;;;;;;13.90;100.00;100399.06;5073755;28;20125;-65
2022/10/15 10:28:04;;;;;;;20.33;11.52;;;;;;;13.88;100.00;100396.41;5075330;28;20177;-64
2022/10/15 10:30:36;;;;;;;19.75;10.93;;;;;;;13.90;100.00;100399.06;5087492;28;20138;-65
2022/10/15 10:33:02;;;;;;;22.02;11.45;;;;;;;13.89;100.00;100400.84;5082839;28;20518;-65
2022/10/15 10:35:42;;;;;;;19.58;10.98;;;;;;;13.91;100.00;100400.81;5080392;28;20391;-67
2022/10/15 10:38:21;;;;;;;19.63;10.32;;;;;;;13.91;100.00;100400.81;5084721;28;20027;-63
2022/10/15 10:40:51;;;;;;;20.05;10.07;;;;;;;13.91;100.00;100392.88;5082275;28;20035;-66
2022/10/15 10:43:16;;;;;;;17.40;9.40;;;;;;;13.92;100.00;100394.66;5079787;28;20035;-65
2022/10/15 10:46:00;;;;;;;16.08;9.60;;;;;;;13.94;100.00;100400.81;5084150;28;20036;-66
2022/10/15 10:48:27;;;;;;;18.83;9.45;;;;;;;13.96;100.00;100399.03;5079182;28;20426;-65
2022/10/15 10:51:18;;;;;;;18.33;9.52;;;;;;;13.98;100.00;100389.31;5076633;28;20395;-65
2022/10/15 10:53:48;;;;;;;15.52;8.60;;;;;;;13.98;100.00;100386.66;5063179;28;20040;-66
2022/10/15 10:56:15;;;;;;;17.40;9.48;;;;;;;13.99;100.00;100384.00;5088665;28;20044;-68
2022/10/15 10:58:41;;;;;;;16.55;9.52;;;;;;;14.02;100.00;100377.84;5085310;28;20419;-66
2022/10/15 11:01:11;;;;;;;13.90;8.65;;;;;;;14.03;100.00;100384.03;5084385;28;20024;-66
2022/10/15 11:03:43;;;;;;;16.50;8.77;;;;;;;14.02;100.00;100377.84;5080197;28;20020;-66
2022/10/15 11:06:24;;;;;;;16.35;8.80;;;;;;;14.04;100.00;100377.81;5081213;28;20077;-67
2022/10/15 11:09:09;;;;;;;19.95;9.48;;;;;;;14.03;100.00;100376.09;5077349;28;20108;-67
2022/10/15 11:11:37;;;;;;;13.07;7.85;;;;;;;14.03;100.00;100374.31;5083451;28;20013;-67